Time;durP1;ratioP1;P1;durP2;ratioP2;P2;SDS_P1;SDS_P2;PMS_P1;PMS_P2;Temp;Humidity;BMP_temperature;BMP_pressure;BME280_temperature;BME280_humidity;BME280_pressure;Samples;Min_cycle;Max_cycle;Signal;HPM_P1;HPM_P2
2023/12/31 00:00:57;;;;;;;3.20;1.50;;;;;;;-6.81;88.02;99872.84;10416391;28;20034;-70
2023/12/31 00:06:00;;;;;;;3.28;1.70;;;;;;;-6.80;88.79;99882.47;10417847;28;20041;-70
2023/12/31 00:11:03;;;;;;;2.35;1.90;;;;;;;-6.93;88.64;99890.34;10406873;28;20069;-69
2023/12/31 00:16:06;;;;;;;1.92;1.40;;;;;;;-6.87;88.67;99890.41;10421485;28;20033;-69
2023/12/31 00:21:08;;;;;;;3.25;2.30;;;;;;;-6.91;87.93;99888.31;10406238;28;20038;-69
2023/12/31 00:26:11;;;;;;;3.35;1.75;;;;;;;-6.96;87.58;99894.19;10422523;28;20037;-69
2023/12/31 00:31:15;;;;;;;1.50;1.40;;;;;;;-6.90;88.55;99897.97;10405351;28;20052;-69
2023/12/31 00:36:17;;;;;;;1.10;1.00;;;;;;;-6.88;88.18;99902.09;10418155;28;20064;-69
2023/12/31 00:41:20;;;;;;;1.60;1.45;;;;;;;-6.91;87.84;99899.00;10416606;28;20041;-68
2023/12/31 00:46:23;;;;;;;2.45;1.60;;;;;;;-6.91;88.44;99910.47;10428490;28;20682;-69
2023/12/31 00:51:26;;;;;;;2.33;1.50;;;;;;;-6.85;88.31;99917.72;10410923;28;20034;-69
2023/12/31 00:56:28;;;;;;;1.90;1.52;;;;;;;-6.79;88.19;99914.31;10418761;28;20422;-69
2023/12/31 01:01:31;;;;;;;1.80;1.60;;;;;;;-6.86;88.26;99925.91;10414783;28;20092;-69
2023/12/31 01:06:33;;;;;;;2.05;1.63;;;;;;;-6.85;88.94;99916.91;10415480;28;20057;-69
2023/12/31 01:11:36;;;;;;;1.83;1.20;;;;;;;-6.85;89.10;99916.91;10417056;28;20052;-69
2023/12/31 01:16:39;;;;;;;2.05;1.40;;;;;;;-6.89;89.26;99934.28;10402647;28;20037;-69
2023/12/31 01:21:44;;;;;;;1.73;1.52;;;;;;;-6.83;89.23;99939.69;10427817;28;20041;-69
2023/12/31 01:26:47;;;;;;;1.10;1.00;;;;;;;-6.94;87.48;99940.19;10423421;28;20042;-69
2023/12/31 01:31:50;;;;;;;2.08;1.30;;;;;;;-6.99;85.19;99946.06;10415005;28;20041;-69
2023/12/31 01:36:53;;;;;;;1.35;1.15;;;;;;;-6.95;86.26;99962.50;10422333;28;20041;-69
2023/12/31 01:41:55;;;;;;;1.75;1.40;;;;;;;-6.98;85.88;99965.56;10400944;28;20057;-70
2023/12/31 01:46:58;;;;;;;0.95;0.90;;;;;;;-7.11;86.06;99960.88;10432574;28;20433;-69
2023/12/31 01:52:01;;;;;;;1.70;1.38;;;;;;;-7.03;86.83;99973.28;10421748;28;20033;-68
2023/12/31 01:57:04;;;;;;;2.20;1.17;;;;;;;-7.02;86.63;99994.44;10403639;28;20033;-68
2023/12/31 02:02:06;;;;;;;2.45;1.35;;;;;;;-7.16;86.89;99994.41;10425391;28;20044;-69
2023/12/31 02:07:09;;;;;;;1.75;1.10;;;;;;;-7.27;87.06;99995.72;10426846;28;20049;-69
2023/12/31 02:12:12;;;;;;;1.58;1.02;;;;;;;-7.33;87.91;100005.22;10414415;28;20502;-69
2023/12/31 02:17:15;;;;;;;1.63;1.40;;;;;;;-7.36;87.60;100002.94;10409741;28;20033;-69
2023/12/31 02:22:17;;;;;;;1.13;1.00;;;;;;;-7.34;87.12;100016.91;10411644;28;20038;-70
2023/12/31 02:27:20;;;;;;;1.88;1.10;;;;;;;-7.47;87.94;100013.19;10401520;28;20045;-70
2023/12/31 02:32:23;;;;;;;2.00;1.42;;;;;;;-7.42;88.10;100027.66;10438415;28;20045;-70
2023/12/31 02:37:26;;;;;;;1.73;1.40;;;;;;;-7.56;87.76;100047.09;10405815;28;20536;-70
2023/12/31 02:42:29;;;;;;;2.33;1.15;;;;;;;-7.73;88.07;100056.19;10406350;28;20030;-69
2023/12/31 02:47:31;;;;;;;1.48;1.27;;;;;;;-7.70;88.06;100051.34;10427049;28;20053;-69
2023/12/31 02:52:35;;;;;;;1.48;1.10;;;;;;;-7.80;87.97;100060.59;10421374;28;20029;-69
2023/12/31 02:57:37;;;;;;;1.83;1.33;;;;;;;-7.88;87.73;100069.44;10409513;28;20037;-69
2023/12/31 03:02:40;;;;;;;2.25;1.27;;;;;;;-7.92;87.20;100078.78;10426730;28;20053;-69
2023/12/31 03:07:43;;;;;;;1.33;1.23;;;;;;;-7.94;87.73;100083.47;10403373;28;20038;-69
2023/12/31 03:12:45;;;;;;;9.23;6.45;;;;;;;-8.14;87.27;100104.38;10436932;28;20033;-69
2023/12/31 03:17:47;;;;;;;6.68;4.38;;;;;;;-8.27;87.48;100112.06;10416290;28;20034;-71
2023/12/31 03:22:50;;;;;;;2.45;1.27;;;;;;;-8.27;86.40;100112.06;10408141;28;20030;-68
2023/12/31 03:27:52;;;;;;;1.25;1.10;;;;;;;-8.31;87.10;100124.91;10430351;28;20038;-69
2023/12/31 03:32:54;;;;;;;1.50;1.25;;;;;;;-8.31;87.97;100143.53;10403221;28;20041;-69
2023/12/31 03:37:57;;;;;;;2.47;2.10;;;;;;;-8.31;87.60;100130.22;10406409;28;20068;-68
2023/12/31 03:42:59;;;;;;;2.67;2.10;;;;;;;-8.39;87.07;100135.59;10418974;28;20038;-70
2023/12/31 03:48:02;;;;;;;1.38;1.08;;;;;;;-8.41;86.22;100153.56;10425294;28;20057;-69
2023/12/31 03:53:04;;;;;;;1.02;0.93;;;;;;;-8.39;87.31;100151.56;10412332;28;20049;-69
2023/12/31 03:58:06;;;;;;;1.40;1.25;;;;;;;-8.49;87.70;100164.22;10435039;28;20048;-69
2023/12/31 04:03:09;;;;;;;2.28;1.40;;;;;;;-8.52;88.02;100177.84;10439658;28;20034;-69
2023/12/31 04:08:11;;;;;;;4.28;1.17;;;;;;;-8.67;86.56;100167.09;10439162;28;20042;-69
2023/12/31 04:13:14;;;;;;;1.27;1.10;;;;;;;-8.67;87.62;100177.72;10408247;28;20045;-68
2023/12/31 04:18:17;;;;;;;1.33;1.23;;;;;;;-8.57;87.86;100196.16;10434523;28;20041;-69
2023/12/31 04:23:19;;;;;;;1.40;1.30;;;;;;;-8.69;87.29;100195.66;10434748;28;20029;-68
2023/12/31 04:28:22;;;;;;;1.88;1.48;;;;;;;-8.74;87.00;100202.50;10439514;28;20041;-70
2023/12/31 04:33:24;;;;;;;1.33;1.17;;;;;;;-8.75;86.27;100208.81;10438845;28;20044;-69
2023/12/31 04:38:26;;;;;;;1.67;1.38;;;;;;;-8.72;85.74;100213.78;10415192;28;20064;-69
2023/12/31 04:43:29;;;;;;;1.45;1.35;;;;;;;-8.72;86.54;100225.25;10421816;28;20057;-69
2023/12/31 04:48:32;;;;;;;1.30;1.10;;;;;;;-8.74;87.43;100229.06;10421796;28;20409;-70
2023/12/31 04:53:34;;;;;;;1.42;0.98;;;;;;;-8.64;87.31;100229.75;10421723;28;20034;-69
2023/12/31 04:58:36;;;;;;;1.73;1.63;;;;;;;-8.59;86.82;100230.06;10419159;28;20421;-69
2023/12/31 05:03:39;;;;;;;1.25;1.15;;;;;;;-8.72;87.00;100240.38;10427309;28;20107;-69
2023/12/31 05:08:43;;;;;;;1.40;1.20;;;;;;;-8.79;86.43;100248.19;10432455;28;20041;-69
2023/12/31 05:13:45;;;;;;;1.13;0.95;;;;;;;-8.77;86.60;100256.00;10414047;28;20034;-69
2023/12/31 05:18:50;;;;;;;1.10;1.00;;;;;;;-8.68;85.41;100252.34;10410700;28;20033;-69
2023/12/31 05:23:52;;;;;;;2.67;1.50;;;;;;;-8.70;86.17;100265.81;10430656;28;20044;-69
2023/12/31 05:28:55;;;;;;;2.65;1.63;;;;;;;-8.59;86.27;100278.78;10444056;28;20037;-69
2023/12/31 05:33:57;;;;;;;1.60;1.48;;;;;;;-8.62;86.91;100279.13;10412207;28;20030;-69
2023/12/31 05:39:00;;;;;;;2.53;1.70;;;;;;;-8.71;86.75;100279.25;10413953;28;20034;-68
2023/12/31 05:44:02;;;;;;;1.15;0.80;;;;;;;-8.84;85.86;100312.50;10433695;28;20033;-69
2023/12/31 05:49:05;;;;;;;1.60;1.08;;;;;;;-8.93;85.88;100312.66;10429767;28;20040;-69
2023/12/31 05:54:07;;;;;;;1.13;1.02;;;;;;;-8.89;86.21;100308.66;10427309;28;20029;-69
2023/12/31 05:59:09;;;;;;;2.20;1.65;;;;;;;-8.84;86.11;100331.13;10430314;28;20037;-69
2023/12/31 06:04:12;;;;;;;2.72;1.80;;;;;;;-8.74;87.54;100320.31;10413058;28;20413;-70
2023/12/31 06:09:15;;;;;;;2.20;1.35;;;;;;;-8.77;87.22;100331.28;10421846;28;20041;-68
2023/12/31 06:14:18;;;;;;;1.92;1.42;;;;;;;-8.76;86.47;100332.94;10419431;28;20030;-68
2023/12/31 06:19:21;;;;;;;1.55;1.45;;;;;;;-8.78;85.64;100353.56;10414901;28;20053;-69
2023/12/31 06:24:23;;;;;;;2.42;1.40;;;;;;;-8.88;85.34;100358.19;10422930;28;20025;-70
2023/12/31 06:29:26;;;;;;;2.05;1.30;;;;;;;-8.86;85.90;100354.34;10423721;28;20406;-69
2023/12/31 06:34:28;;;;;;;2.22;1.70;;;;;;;-8.80;86.14;100354.72;10440051;28;20041;-70
2023/12/31 06:39:30;;;;;;;2.47;1.73;;;;;;;-8.78;85.68;100374.84;10428860;28;20448;-69
2023/12/31 06:44:33;;;;;;;2.00;1.40;;;;;;;-8.93;84.69;100379.94;10427550;28;20057;-70
2023/12/31 06:49:36;;;;;;;1.83;1.38;;;;;;;-8.91;84.57;100385.91;10423334;28;20537;-70
2023/12/31 06:54:39;;;;;;;1.55;1.10;;;;;;;-8.79;83.88;100388.28;10410628;28;20033;-70
2023/12/31 06:59:43;;;;;;;1.70;1.50;;;;;;;-8.90;84.59;100400.88;10436517;28;20045;-69
2023/12/31 07:04:46;;;;;;;1.80;1.40;;;;;;;-8.83;84.26;100409.06;10425609;28;20512;-69
2023/12/31 07:09:48;;;;;;;1.40;1.30;;;;;;;-8.80;84.53;100405.25;10436833;28;20076;-68
2023/12/31 07:14:50;;;;;;;2.03;1.40;;;;;;;-8.72;84.81;100416.72;10418105;28;20029;-69
2023/12/31 07:19:53;;;;;;;2.10;1.83;;;;;;;-8.80;85.27;100423.84;10441302;28;20041;-69
2023/12/31 07:24:55;;;;;;;1.10;1.00;;;;;;;-8.80;83.77;100424.69;10404809;28;20038;-68
2023/12/31 07:29:57;;;;;;;1.35;1.02;;;;;;;-8.76;84.47;100441.97;10403871;28;20029;-68
2023/12/31 07:35:00;;;;;;;3.03;1.45;;;;;;;-8.68;84.68;100436.66;10403416;28;20697;-69
2023/12/31 07:40:04;;;;;;;2.67;1.90;;;;;;;-8.70;85.43;100456.44;10434249;28;20037;-69
2023/12/31 07:45:07;;;;;;;3.30;1.92;;;;;;;-8.64;85.44;100446.00;10441169;28;20505;-70
2023/12/31 07:50:10;;;;;;;2.60;1.75;;;;;;;-8.59;85.02;100448.19;10418148;28;20041;-70
2023/12/31 07:55:12;;;;;;;3.80;2.50;;;;;;;-8.53;85.83;100468.81;10430303;28;20421;-70
2023/12/31 08:00:15;;;;;;;2.08;1.83;;;;;;;-8.51;86.51;100457.00;10404341;28;20518;-70
2023/12/31 08:05:18;;;;;;;3.03;1.90;;;;;;;-8.66;85.57;100466.63;10407094;28;20045;-70
2023/12/31 08:10:20;;;;;;;2.55;1.48;;;;;;;-8.51;86.30;100469.47;10423560;28;21193;-69
2023/12/31 08:15:23;;;;;;;2.88;1.92;;;;;;;-8.48;85.39;100468.34;10429540;28;20430;-69
2023/12/31 08:20:26;;;;;;;2.58;1.90;;;;;;;-8.47;85.58;100476.16;10440701;28;20062;-70
2023/12/31 08:25:29;;;;;;;2.15;1.65;;;;;;;-8.58;84.15;100484.41;10436284;28;20056;-70
2023/12/31 08:30:33;;;;;;;2.92;1.67;;;;;;;-8.58;84.67;100487.09;10437631;28;20042;-70
2023/12/31 08:35:35;;;;;;;2.67;1.80;;;;;;;-8.47;85.49;100496.59;10413963;28;20037;-70
2023/12/31 08:40:37;;;;;;;2.63;1.77;;;;;;;-8.57;85.65;100497.56;10419692;28;20037;-69
2023/12/31 08:45:40;;;;;;;2.45;2.10;;;;;;;-8.49;85.50;100504.75;10433266;28;20053;-70
2023/12/31 08:50:42;;;;;;;3.20;2.00;;;;;;;-8.54;85.41;100515.00;10426853;28;20042;-71
2023/12/31 08:55:44;;;;;;;2.60;1.98;;;;;;;-8.55;85.21;100521.34;10419450;28;20060;-69
2023/12/31 09:00:47;;;;;;;2.92;1.42;;;;;;;-8.70;84.62;100529.09;10420785;28;20045;-69
2023/12/31 09:05:49;;;;;;;2.40;1.48;;;;;;;-8.63;83.60;100534.63;10419050;28;20041;-69
2023/12/31 09:10:54;;;;;;;2.58;2.17;;;;;;;-8.62;84.54;100530.97;10418386;28;20038;-69
2023/12/31 09:15:56;;;;;;;2.92;1.75;;;;;;;-8.62;84.21;100529.13;10412241;28;20037;-70
2023/12/31 09:20:58;;;;;;;2.53;1.90;;;;;;;-8.70;83.78;100534.41;10405320;28;20036;-70
2023/12/31 09:26:01;;;;;;;1.92;1.73;;;;;;;-8.68;84.25;100535.06;10426577;28;20042;-70
2023/12/31 09:31:03;;;;;;;3.45;2.03;;;;;;;-8.65;84.44;100544.59;10413430;28;20125;-72
2023/12/31 09:36:07;;;;;;;3.85;1.98;;;;;;;-8.80;83.95;100541.69;10431744;28;20037;-71
2023/12/31 09:41:15;;;;;;;2.42;2.22;;;;;;;-8.79;84.75;100551.31;10426231;28;20055;-71
2023/12/31 09:46:20;;;;;;;3.38;3.00;;;;;;;-8.76;84.39;100553.66;10424525;28;20057;-72
2023/12/31 09:51:23;;;;;;;5.20;2.72;;;;;;;-8.76;84.04;100555.50;10441653;28;20505;-71
2023/12/31 09:56:28;;;;;;;4.13;2.67;;;;;;;-9.00;84.59;100569.50;10416878;28;20045;-73
2023/12/31 10:01:30;;;;;;;6.05;3.00;;;;;;;-9.16;85.00;100562.25;10427632;28;20034;-72
2023/12/31 10:06:33;;;;;;;5.85;3.30;;;;;;;-9.25;84.84;100565.81;10423892;28;20046;-72
2023/12/31 10:11:37;;;;;;;4.45;3.08;;;;;;;-9.47;85.47;100575.94;10417722;28;20034;-72
2023/12/31 10:16:43;;;;;;;4.68;3.00;;;;;;;-9.63;85.34;100574.97;10425149;28;20048;-71
2023/12/31 10:21:45;;;;;;;3.95;2.83;;;;;;;-9.67;85.17;100584.25;10418397;28;20731;-72
2023/12/31 10:26:48;;;;;;;6.22;2.90;;;;;;;-9.85;84.96;100584.22;10418752;28;20056;-71
2023/12/31 10:31:52;;;;;;;4.55;2.83;;;;;;;-9.84;84.40;100584.09;10431319;28;20034;-71
2023/12/31 10:37:03;;;;;;;4.75;2.90;;;;;;;-9.95;84.83;100588.75;10432541;28;20045;-71
2023/12/31 10:42:06;;;;;;;7.55;3.70;;;;;;;-9.95;84.53;100602.03;10413343;28;20456;-70
2023/12/31 10:47:11;;;;;;;6.07;3.50;;;;;;;-10.15;83.99;100609.28;10409946;28;20045;-72
2023/12/31 10:52:15;;;;;;;5.75;3.00;;;;;;;-10.22;83.80;100619.69;10428130;28;20041;-72
2023/12/31 10:57:21;;;;;;;5.57;2.72;;;;;;;-10.33;83.30;100622.53;10424206;28;20046;-72
2023/12/31 11:02:24;;;;;;;4.03;2.85;;;;;;;-10.54;83.80;100622.78;10404849;28;20046;-72
2023/12/31 11:07:28;;;;;;;3.97;2.67;;;;;;;-10.70;83.00;100628.69;10437396;28;20047;-70
2023/12/31 11:12:30;;;;;;;4.70;3.20;;;;;;;-10.89;83.24;100633.22;10432687;28;20033;-71
2023/12/31 11:17:46;;;;;;;5.13;3.08;;;;;;;-10.79;82.92;100645.44;10423955;28;20052;-68
2023/12/31 11:23:07;;;;;;;4.97;3.03;;;;;;;-10.88;82.13;100651.63;10418833;28;20036;-70
2023/12/31 11:28:10;;;;;;;5.25;3.50;;;;;;;-10.97;82.67;100647.16;10406895;28;20050;-71
2023/12/31 11:33:15;;;;;;;5.72;3.15;;;;;;;-10.85;83.26;100653.13;10412588;28;20044;-69
2023/12/31 11:38:21;;;;;;;4.88;2.92;;;;;;;-10.99;83.25;100659.72;10417350;28;20045;-71
2023/12/31 11:43:34;;;;;;;5.00;3.08;;;;;;;-11.14;82.91;100666.41;10427926;28;20041;-69
2023/12/31 11:48:37;;;;;;;5.18;3.03;;;;;;;-11.20;82.80;100664.34;10424746;28;20064;-68
2023/12/31 11:53:50;;;;;;;5.18;3.03;;;;;;;-11.36;82.54;100675.50;10419003;28;20029;-68
2023/12/31 11:58:54;;;;;;;6.38;2.90;;;;;;;-11.40;83.58;100667.00;10440825;28;20861;-68
2023/12/31 12:03:58;;;;;;;4.95;3.10;;;;;;;-11.50;83.41;100679.38;10426104;28;20413;-70
2023/12/31 12:09:00;;;;;;;5.57;3.53;;;;;;;-11.61;83.32;100684.81;10411695;28;20094;-71
2023/12/31 12:14:04;;;;;;;6.07;3.30;;;;;;;-11.61;84.10;100688.31;10428626;28;20044;-70
2023/12/31 12:19:06;;;;;;;5.32;3.78;;;;;;;-11.69;83.26;100696.09;10425430;28;20037;-70
2023/12/31 12:24:09;;;;;;;6.57;3.60;;;;;;;-11.76;83.61;100702.91;10421254;28;20037;-70
2023/12/31 12:29:14;;;;;;;7.97;4.00;;;;;;;-11.73;84.00;100696.50;10412554;28;20030;-69
2023/12/31 12:34:17;;;;;;;7.80;4.15;;;;;;;-11.84;83.32;100696.63;10420214;28;20036;-71
2023/12/31 12:39:20;;;;;;;5.90;3.47;;;;;;;-12.01;83.85;100698.94;10415820;28;20045;-70
2023/12/31 12:44:23;;;;;;;8.40;4.13;;;;;;;-12.09;84.30;100705.91;10425468;28;20042;-73
2023/12/31 12:49:25;;;;;;;7.93;4.63;;;;;;;-12.18;84.05;100712.81;10435486;28;20517;-69
2023/12/31 12:54:28;;;;;;;8.52;4.80;;;;;;;-12.22;84.50;100722.81;10427987;28;20410;-70
2023/12/31 12:59:31;;;;;;;8.10;5.18;;;;;;;-12.24;84.83;100710.72;10414630;28;20033;-70
2023/12/31 13:04:33;;;;;;;8.23;5.07;;;;;;;-12.15;84.17;100731.06;10425451;28;20044;-69
2023/12/31 13:09:36;;;;;;;8.73;4.70;;;;;;;-12.15;84.24;100739.00;10419758;28;20034;-67
2023/12/31 13:14:39;;;;;;;10.63;5.50;;;;;;;-12.18;84.19;100740.09;10422421;28;20036;-69
2023/12/31 13:19:41;;;;;;;11.30;5.80;;;;;;;-12.37;84.29;100742.66;10431039;28;20033;-70
2023/12/31 13:24:43;;;;;;;12.18;5.80;;;;;;;-12.44;84.33;100740.69;10431635;28;20048;-69
2023/12/31 13:29:45;;;;;;;10.32;5.22;;;;;;;-12.50;83.92;100745.50;10432680;28;20045;-71
2023/12/31 13:34:49;;;;;;;11.80;5.20;;;;;;;-12.55;84.02;100755.63;10425610;28;20029;-72
2023/12/31 13:39:51;;;;;;;10.07;5.07;;;;;;;-12.59;83.73;100763.94;10418626;28;20041;-71
2023/12/31 13:44:53;;;;;;;9.35;5.10;;;;;;;-12.63;83.74;100757.25;10437521;28;20056;-71
2023/12/31 13:49:59;;;;;;;7.18;4.68;;;;;;;-12.78;84.49;100756.72;10437091;28;20037;-72
2023/12/31 13:55:01;;;;;;;10.88;5.25;;;;;;;-12.78;84.29;100756.72;10427425;28;20500;-74
2023/12/31 14:00:05;;;;;;;9.45;5.72;;;;;;;-12.85;83.63;100777.53;10425374;28;20041;-71
2023/12/31 14:05:08;;;;;;;8.57;4.57;;;;;;;-12.88;83.78;100782.22;10426672;28;20029;-71
2023/12/31 14:10:12;;;;;;;8.85;4.78;;;;;;;-13.01;84.43;100781.59;10434333;28;20407;-66
2023/12/31 14:15:14;;;;;;;7.97;4.47;;;;;;;-12.98;84.49;100789.25;10419580;28;20033;-69
2023/12/31 14:20:17;;;;;;;9.43;4.05;;;;;;;-13.03;84.14;100794.06;10413385;28;20045;-69
2023/12/31 14:25:20;;;;;;;8.30;4.10;;;;;;;-13.13;84.24;100788.72;10415963;28;20049;-69
2023/12/31 14:30:22;;;;;;;5.93;4.15;;;;;;;-13.17;83.44;100795.22;10436370;28;20049;-70
2023/12/31 14:35:28;;;;;;;6.88;4.43;;;;;;;-13.29;84.03;100804.97;10435813;28;20041;-70
2023/12/31 14:40:30;;;;;;;8.30;4.75;;;;;;;-13.27;83.46;100808.34;10431726;28;20041;-70
2023/12/31 14:45:32;;;;;;;7.97;5.03;;;;;;;-13.34;83.78;100806.31;10428630;28;20048;-72
2023/12/31 14:50:35;;;;;;;7.82;4.55;;;;;;;-13.23;83.87;100814.19;10433299;28;20041;-72
2023/12/31 14:55:37;;;;;;;8.63;4.50;;;;;;;-13.27;83.90;100808.34;10425263;28;20505;-71
2023/12/31 15:00:39;;;;;;;8.68;4.43;;;;;;;-13.13;84.37;100815.13;10425958;28;20037;-73
2023/12/31 15:05:42;;;;;;;9.02;5.13;;;;;;;-13.16;84.15;100816.19;10421939;28;20422;-74
2023/12/31 15:10:44;;;;;;;13.10;6.10;;;;;;;-13.31;83.95;100814.84;10420203;28;20038;-73
2023/12/31 15:15:46;;;;;;;11.27;6.20;;;;;;;-13.46;83.98;100813.41;10420201;28;20030;-73
2023/12/31 15:20:48;;;;;;;12.95;7.20;;;;;;;-13.51;83.75;100819.06;10423490;28;20418;-72
2023/12/31 15:25:51;;;;;;;11.07;6.55;;;;;;;-13.52;84.21;100819.19;10416524;28;20409;-71
2023/12/31 15:30:53;;;;;;;10.30;5.38;;;;;;;-13.73;83.62;100822.56;10418949;28;20044;-71
2023/12/31 15:35:55;;;;;;;9.27;4.90;;;;;;;-13.78;83.83;100829.16;10421243;28;20417;-70
2023/12/31 15:40:58;;;;;;;7.97;4.97;;;;;;;-13.88;84.05;100838.72;10416843;28;20050;-72
2023/12/31 15:46:01;;;;;;;6.70;3.70;;;;;;;-14.03;83.95;100846.06;10430267;28;20041;-70
2023/12/31 15:51:04;;;;;;;8.68;3.88;;;;;;;-14.11;83.57;100853.72;10433390;28;20113;-70
2023/12/31 15:56:06;;;;;;;11.35;7.35;;;;;;;-14.14;84.44;100848.69;10422196;28;20402;-70
2023/12/31 16:01:10;;;;;;;10.18;6.63;;;;;;;-14.19;84.38;100858.75;10424275;28;20045;-67
2023/12/31 16:06:13;;;;;;;10.63;6.50;;;;;;;-14.13;84.15;100860.91;10426077;28;20049;-67
2023/12/31 16:11:16;;;;;;;12.52;6.70;;;;;;;-14.12;84.10;100859.94;10425798;28;20044;-73
2023/12/31 16:16:19;;;;;;;12.85;7.15;;;;;;;-14.08;83.70;100859.56;10436655;28;20038;-68
2023/12/31 16:21:25;;;;;;;9.10;5.78;;;;;;;-14.03;84.19;100859.25;10436454;28;20084;-70
2023/12/31 16:26:28;;;;;;;6.78;4.00;;;;;;;-13.99;83.96;100858.03;10432645;28;20037;-68
2023/12/31 16:31:31;;;;;;;6.70;3.85;;;;;;;-13.97;84.28;100863.19;10425814;28;20037;-69
2023/12/31 16:36:33;;;;;;;7.35;4.13;;;;;;;-13.75;83.58;100868.47;10433486;28;20037;-69
2023/12/31 16:41:36;;;;;;;6.50;4.60;;;;;;;-13.82;83.96;100868.13;10437846;28;20045;-68
2023/12/31 16:46:39;;;;;;;6.55;4.53;;;;;;;-13.85;83.87;100872.81;10442995;28;20049;-68
2023/12/31 16:51:41;;;;;;;7.10;4.60;;;;;;;-13.85;83.33;100871.00;10430467;28;20040;-69
2023/12/31 16:56:43;;;;;;;7.30;4.30;;;;;;;-13.92;83.99;100874.22;10447471;28;20033;-68
2023/12/31 17:01:46;;;;;;;5.93;3.72;;;;;;;-13.92;83.55;100874.22;10424610;28;20413;-69
2023/12/31 17:06:48;;;;;;;6.80;4.20;;;;;;;-14.01;83.42;100875.78;10440398;28;20044;-67
2023/12/31 17:11:51;;;;;;;7.60;3.90;;;;;;;-13.87;83.62;100872.94;10435381;28;20528;-69
2023/12/31 17:16:54;;;;;;;7.65;4.38;;;;;;;-13.86;83.85;100887.78;10451731;28;20033;-69
2023/12/31 17:21:56;;;;;;;9.13;5.05;;;;;;;-13.94;83.46;100898.06;10452549;28;20052;-68
2023/12/31 17:26:59;;;;;;;8.40;5.20;;;;;;;-13.82;83.66;100907.69;10454035;28;20048;-67
2023/12/31 17:32:02;;;;;;;11.50;6.22;;;;;;;-13.85;83.23;100920.28;10429140;28;20037;-69
2023/12/31 17:37:09;;;;;;;14.07;7.10;;;;;;;-13.71;84.16;100914.75;10429679;28;20037;-70
2023/12/31 17:42:13;;;;;;;10.82;6.18;;;;;;;-13.73;83.80;100912.25;10440368;28;20046;-70
2023/12/31 17:47:15;;;;;;;13.77;7.85;;;;;;;-13.80;83.24;100916.31;10441625;28;20049;-72
2023/12/31 17:52:18;;;;;;;14.93;8.32;;;;;;;-13.92;83.78;100911.97;10454018;28;20439;-70
2023/12/31 17:57:20;;;;;;;13.85;7.10;;;;;;;-13.76;84.67;100920.41;10454424;28;20429;-70
2023/12/31 18:02:23;;;;;;;15.15;7.78;;;;;;;-13.77;83.86;100912.59;10453255;28;20040;-70
2023/12/31 18:07:25;;;;;;;16.38;7.85;;;;;;;-13.80;84.13;100918.97;10445148;28;20048;-69
2023/12/31 18:12:28;;;;;;;17.73;8.68;;;;;;;-13.76;84.44;100907.22;10448435;28;20071;-69
2023/12/31 18:17:30;;;;;;;17.90;8.45;;;;;;;-13.63;84.68;100919.47;10447399;28;20041;-69
2023/12/31 18:22:33;;;;;;;16.27;9.15;;;;;;;-13.51;84.72;100926.44;10448898;28;20037;-69
2023/12/31 18:27:38;;;;;;;14.88;7.40;;;;;;;-13.56;84.48;100933.84;10448681;28;20068;-69
2023/12/31 18:32:41;;;;;;;14.18;8.32;;;;;;;-13.58;85.15;100938.41;10432641;28;20041;-71
2023/12/31 18:37:43;;;;;;;12.23;6.35;;;;;;;-13.45;85.20;100936.50;10437730;28;20514;-71
2023/12/31 18:42:45;;;;;;;12.48;6.85;;;;;;;-13.44;85.42;100935.53;10441079;28;20037;-70
2023/12/31 18:47:48;;;;;;;11.75;6.50;;;;;;;-13.36;85.40;100938.44;10446838;28;20057;-71
2023/12/31 18:52:50;;;;;;;12.93;6.88;;;;;;;-13.22;84.94;100939.97;10434991;28;20037;-69
2023/12/31 18:57:53;;;;;;;13.05;6.95;;;;;;;-13.03;85.33;100944.59;10433728;28;20044;-70
2023/12/31 19:02:55;;;;;;;10.13;6.22;;;;;;;-13.11;85.54;100951.31;10404749;28;20445;-70
2023/12/31 19:07:59;;;;;;;10.38;5.97;;;;;;;-13.18;84.81;100959.91;10444660;28;20041;-72
2023/12/31 19:13:01;;;;;;;7.95;4.90;;;;;;;-13.11;85.71;100961.06;10444707;28;20038;-70
2023/12/31 19:18:04;;;;;;;7.25;5.07;;;;;;;-13.10;84.88;100965.38;10443953;28;20037;-70
2023/12/31 19:23:06;;;;;;;12.32;6.95;;;;;;;-13.20;85.49;100969.72;10446212;28;20033;-71
2023/12/31 19:28:09;;;;;;;10.23;5.95;;;;;;;-13.05;84.91;100971.13;10445825;28;20045;-69
2023/12/31 19:33:11;;;;;;;7.80;4.57;;;;;;;-12.98;84.86;100987.34;10445793;28;20037;-69
2023/12/31 19:38:13;;;;;;;7.97;4.55;;;;;;;-12.93;85.30;100993.09;10445608;28;20049;-69
2023/12/31 19:43:16;;;;;;;6.75;4.68;;;;;;;-13.09;84.49;101001.38;10444233;28;20045;-69
2023/12/31 19:48:18;;;;;;;9.73;5.15;;;;;;;-13.13;84.93;101000.78;10444861;28;20059;-70
2023/12/31 19:53:20;;;;;;;8.75;6.32;;;;;;;-13.16;84.90;101003.66;10444589;28;20501;-70
2023/12/31 19:58:22;;;;;;;5.53;4.05;;;;;;;-13.22;84.16;101013.88;10445675;28;20045;-70
2023/12/31 20:03:25;;;;;;;7.28;4.07;;;;;;;-13.26;84.36;101015.09;10438707;28;20041;-70
2023/12/31 20:08:28;;;;;;;8.38;4.07;;;;;;;-13.35;84.80;101016.66;10442036;28;20045;-70
2023/12/31 20:13:31;;;;;;;5.97;3.78;;;;;;;-13.33;85.37;101027.09;10447737;28;20037;-70
2023/12/31 20:18:33;;;;;;;4.70;3.25;;;;;;;-13.34;85.23;101026.25;10446748;28;20041;-71
2023/12/31 20:23:36;;;;;;;6.82;3.90;;;;;;;-13.32;84.02;101041.97;10444734;28;20041;-70
2023/12/31 20:28:38;;;;;;;8.20;4.20;;;;;;;-13.36;84.18;101035.22;10443471;28;20418;-71
2023/12/31 20:33:40;;;;;;;8.60;4.57;;;;;;;-13.35;84.72;101047.50;10442787;28;20033;-70
2023/12/31 20:38:45;;;;;;;8.75;4.65;;;;;;;-13.29;84.21;101060.22;10443992;28;20045;-70
2023/12/31 20:43:50;;;;;;;11.38;5.15;;;;;;;-13.43;84.63;101055.97;10442552;28;20041;-71
2023/12/31 20:48:52;;;;;;;9.77;5.00;;;;;;;-13.39;84.46;101054.78;10443110;28;20056;-70
2023/12/31 20:53:54;;;;;;;10.43;5.20;;;;;;;-13.32;84.83;101065.72;10443777;28;20030;-70
2023/12/31 20:59:00;;;;;;;10.68;5.72;;;;;;;-13.27;84.94;101064.41;10443221;28;20421;-71
2023/12/31 21:04:02;;;;;;;10.57;6.22;;;;;;;-13.23;83.78;101079.03;10442876;28;20051;-71
2023/12/31 21:09:08;;;;;;;10.30;5.47;;;;;;;-13.24;83.90;101073.88;10443227;28;20042;-70
2023/12/31 21:14:10;;;;;;;10.40;5.10;;;;;;;-13.17;84.43;101086.47;10443128;28;20045;-70
2023/12/31 21:19:13;;;;;;;7.93;4.57;;;;;;;-13.09;83.59;101094.66;10443133;28;20065;-70
2023/12/31 21:24:15;;;;;;;8.00;4.80;;;;;;;-13.03;83.92;101093.31;10443237;28;20037;-71
2023/12/31 21:29:17;;;;;;;6.75;4.82;;;;;;;-13.02;84.60;101099.44;10442794;28;20057;-70
2023/12/31 21:34:20;;;;;;;8.10;4.38;;;;;;;-12.94;84.15;101100.56;10442815;28;20040;-70
2023/12/31 21:39:22;;;;;;;13.85;9.27;;;;;;;-12.90;84.79;101107.28;10446879;28;20048;-70
2023/12/31 21:44:26;;;;;;;13.93;8.10;;;;;;;-12.72;84.52;101120.84;10450617;28;20599;-70
2023/12/31 21:49:28;;;;;;;14.73;9.00;;;;;;;-12.68;84.42;101117.00;10448328;28;20033;-70
2023/12/31 21:54:31;;;;;;;21.00;15.40;;;;;;;-12.62;83.96;101119.19;10449942;28;20048;-70
2023/12/31 21:59:33;;;;;;;179.00;126.47;;;;;;;-12.58;84.40;101117.97;10448306;28;20049;-70
2023/12/31 22:04:36;;;;;;;20.08;12.65;;;;;;;-12.54;84.74;101129.97;10449981;28;20064;-70
2023/12/31 22:09:41;;;;;;;17.35;11.52;;;;;;;-12.56;84.79;101136.34;10449635;28;20037;-70
2023/12/31 22:14:44;;;;;;;20.70;12.77;;;;;;;-12.57;84.73;101143.44;10449371;28;20037;-71
2023/12/31 22:19:48;;;;;;;25.25;16.35;;;;;;;-12.51;84.63;101140.31;10449012;28;20034;-71
2023/12/31 22:24:50;;;;;;;24.92;15.70;;;;;;;-12.51;85.22;101129.72;10448971;28;20045;-70
2023/12/31 22:29:54;;;;;;;22.50;13.80;;;;;;;-12.54;84.46;101135.25;10447770;28;20044;-70
2023/12/31 22:34:57;;;;;;;18.42;12.75;;;;;;;-12.69;85.05;101114.47;10449442;28;20049;-70
2023/12/31 22:40:00;;;;;;;20.77;13.93;;;;;;;-12.88;85.40;101136.22;10448506;28;20045;-69
2023/12/31 22:45:04;;;;;;;30.27;17.92;;;;;;;-12.93;85.75;101138.38;10445713;28;20049;-69
2023/12/31 22:50:06;;;;;;;35.38;21.65;;;;;;;-13.06;85.11;101146.38;10447557;28;20041;-70
2023/12/31 22:55:08;;;;;;;30.00;16.85;;;;;;;-13.05;85.64;101155.16;10446201;28;20037;-71
2023/12/31 23:00:15;;;;;;;27.98;17.65;;;;;;;-13.10;85.56;101158.16;10445350;28;20068;-70